sensor_id;sensor_type;location;lat;lon;timestamp;pressure;altitude;pressure_sealevel;temperature;humidity
54592;BME280;40488;48.558;18.150;2023-02-20T00:01:51;100380.28;;;2.92;74.40
54592;BME280;40488;48.558;18.150;2023-02-20T00:04:21;100386.09;;;2.91;75.14
54592;BME280;40488;48.558;18.150;2023-02-20T00:06:50;100387.03;;;2.93;74.72
54592;BME280;40488;48.558;18.150;2023-02-20T00:09:20;100391.13;;;2.91;75.29
54592;BME280;40488;48.558;18.150;2023-02-20T00:11:49;100391.22;;;2.92;74.57
54592;BME280;40488;48.558;18.150;2023-02-20T00:14:18;100393.56;;;2.88;74.56
54592;BME280;40488;48.558;18.150;2023-02-20T00:16:46;100394.34;;;2.87;74.84
54592;BME280;40488;48.558;18.150;2023-02-20T00:19:15;100395.03;;;2.83;75.71
54592;BME280;40488;48.558;18.150;2023-02-20T00:21:45;100381.91;;;2.70;75.35
54592;BME280;40488;48.558;18.150;2023-02-20T00:24:16;100395.38;;;2.71;76.02
54592;BME280;40488;48.558;18.150;2023-02-20T00:26:47;100382.84;;;2.72;75.59
54592;BME280;40488;48.558;18.150;2023-02-20T00:29:19;100381.50;;;2.81;76.17
54592;BME280;40488;48.558;18.150;2023-02-20T00:31:51;100378.31;;;2.85;76.10
54592;BME280;40488;48.558;18.150;2023-02-20T00:34:21;100374.97;;;2.86;76.13
54592;BME280;40488;48.558;18.150;2023-02-20T00:36:50;100373.25;;;2.85;76.04
54592;BME280;40488;48.558;18.150;2023-02-20T00:39:19;100377.94;;;2.76;76.54
54592;BME280;40488;48.558;18.150;2023-02-20T00:41:49;100374.59;;;2.77;75.99
54592;BME280;40488;48.558;18.150;2023-02-20T00:44:18;100366.13;;;2.75;76.47
54592;BME280;40488;48.558;18.150;2023-02-20T00:46:47;100362.53;;;2.69;76.31
54592;BME280;40488;48.558;18.150;2023-02-20T00:49:17;100359.66;;;2.60;75.72
54592;BME280;40488;48.558;18.150;2023-02-20T00:51:46;100374.56;;;2.56;76.75
54592;BME280;40488;48.558;18.150;2023-02-20T00:54:15;100364.97;;;2.47;76.82
54592;BME280;40488;48.558;18.150;2023-02-20T00:56:44;100371.41;;;2.41;76.04
54592;BME280;40488;48.558;18.150;2023-02-20T00:59:14;100361.19;;;2.38;76.32
54592;BME280;40488;48.558;18.150;2023-02-20T01:01:43;100347.25;;;2.25;76.51
54592;BME280;40488;48.558;18.150;2023-02-20T01:04:12;100363.50;;;2.33;76.97
54592;BME280;40488;48.558;18.150;2023-02-20T01:06:41;100362.59;;;2.31;76.95
54592;BME280;40488;48.558;18.150;2023-02-20T01:09:11;100364.72;;;2.22;77.38
54592;BME280;40488;48.558;18.150;2023-02-20T01:11:41;100356.09;;;2.17;77.29
54592;BME280;40488;48.558;18.150;2023-02-20T01:14:10;100353.44;;;2.14;77.44
54592;BME280;40488;48.558;18.150;2023-02-20T01:16:44;100347.44;;;2.11;77.06
54592;BME280;40488;48.558;18.150;2023-02-20T01:19:14;100347.25;;;2.06;76.79
54592;BME280;40488;48.558;18.150;2023-02-20T01:21:43;100334.66;;;2.06;76.80
54592;BME280;40488;48.558;18.150;2023-02-20T01:24:11;100331.31;;;2.07;77.38
54592;BME280;40488;48.558;18.150;2023-02-20T01:26:40;100341.16;;;2.01;76.97
54592;BME280;40488;48.558;18.150;2023-02-20T01:29:09;100342.59;;;1.96;77.61
54592;BME280;40488;48.558;18.150;2023-02-20T01:31:38;100339.06;;;1.92;76.96
54592;BME280;40488;48.558;18.150;2023-02-20T01:34:09;100341.19;;;1.83;77.04
54592;BME280;40488;48.558;18.150;2023-02-20T01:36:38;100332.84;;;1.84;77.66
54592;BME280;40488;48.558;18.150;2023-02-20T01:39:12;100334.84;;;1.91;77.43
54592;BME280;40488;48.558;18.150;2023-02-20T01:41:45;100330.41;;;1.86;78.20
54592;BME280;40488;48.558;18.150;2023-02-20T01:44:19;100332.72;;;1.81;77.63
54592;BME280;40488;48.558;18.150;2023-02-20T01:46:51;100324.44;;;1.84;78.31
54592;BME280;40488;48.558;18.150;2023-02-20T01:49:32;100322.06;;;1.87;77.85
54592;BME280;40488;48.558;18.150;2023-02-20T01:52:07;100322.06;;;1.87;77.79
54592;BME280;40488;48.558;18.150;2023-02-20T01:54:39;100325.09;;;1.80;77.62
54592;BME280;40488;48.558;18.150;2023-02-20T01:57:13;100325.09;;;1.80;78.19
54592;BME280;40488;48.558;18.150;2023-02-20T01:59:45;100341.03;;;1.80;78.79
54592;BME280;40488;48.558;18.150;2023-02-20T02:02:15;100353.03;;;1.86;78.96
54592;BME280;40488;48.558;18.150;2023-02-20T02:04:47;100345.88;;;1.95;78.51
54592;BME280;40488;48.558;18.150;2023-02-20T02:07:16;100342.97;;;2.05;78.36
54592;BME280;40488;48.558;18.150;2023-02-20T02:09:49;100351.75;;;2.13;78.83
54592;BME280;40488;48.558;18.150;2023-02-20T02:12:21;100352.00;;;2.19;78.54
54592;BME280;40488;48.558;18.150;2023-02-20T02:14:50;100353.19;;;2.27;79.17
54592;BME280;40488;48.558;18.150;2023-02-20T02:17:41;100356.09;;;2.36;79.20
54592;BME280;40488;48.558;18.150;2023-02-20T02:20:47;100349.75;;;2.44;79.42
54592;BME280;40488;48.558;18.150;2023-02-20T02:26:39;100349.53;;;2.59;78.78
54592;BME280;40488;48.558;18.150;2023-02-20T02:35:29;100347.41;;;2.69;78.86
54592;BME280;40488;48.558;18.150;2023-02-20T02:38:14;100337.59;;;2.76;78.46
54592;BME280;40488;48.558;18.150;2023-02-20T02:40:51;100343.81;;;2.84;78.04
54592;BME280;40488;48.558;18.150;2023-02-20T02:43:27;100347.25;;;2.86;78.81
54592;BME280;40488;48.558;18.150;2023-02-20T02:46:05;100351.44;;;2.85;78.38
54592;BME280;40488;48.558;18.150;2023-02-20T02:48:40;100338.88;;;2.87;78.05
54592;BME280;40488;48.558;18.150;2023-02-20T02:51:16;100336.63;;;2.93;78.09
54592;BME280;40488;48.558;18.150;2023-02-20T02:54:10;100337.41;;;2.92;78.56
54592;BME280;40488;48.558;18.150;2023-02-20T02:56:41;100336.69;;;2.94;78.52
54592;BME280;40488;48.558;18.150;2023-02-20T02:59:14;100329.91;;;2.93;77.73
54592;BME280;40488;48.558;18.150;2023-02-20T03:01:49;100332.38;;;2.92;78.38
54592;BME280;40488;48.558;18.150;2023-02-20T03:04:22;100336.38;;;2.87;78.52
54592;BME280;40488;48.558;18.150;2023-02-20T03:07:01;100331.19;;;2.84;77.69
54592;BME280;40488;48.558;18.150;2023-02-20T03:09:36;100339.56;;;2.83;77.78
54592;BME280;40488;48.558;18.150;2023-02-20T03:12:09;100334.41;;;2.80;78.39
54592;BME280;40488;48.558;18.150;2023-02-20T03:14:44;100348.09;;;2.65;78.48
54592;BME280;40488;48.558;18.150;2023-02-20T03:17:29;100344.41;;;2.57;78.77
54592;BME280;40488;48.558;18.150;2023-02-20T03:20:01;100345.81;;;2.51;77.99
54592;BME280;40488;48.558;18.150;2023-02-20T03:22:33;100341.38;;;2.45;79.01
54592;BME280;40488;48.558;18.150;2023-02-20T03:25:13;100344.94;;;2.50;78.49
54592;BME280;40488;48.558;18.150;2023-02-20T03:27:50;100330.56;;;2.48;79.19
54592;BME280;40488;48.558;18.150;2023-02-20T03:30:21;100324.56;;;2.44;78.81
54592;BME280;40488;48.558;18.150;2023-02-20T03:32:55;100319.25;;;2.38;79.22
54592;BME280;40488;48.558;18.150;2023-02-20T03:35:38;100311.03;;;2.42;79.13
54592;BME280;40488;48.558;18.150;2023-02-20T03:38:20;100309.44;;;2.44;79.72
54592;BME280;40488;48.558;18.150;2023-02-20T03:41:03;100320.44;;;2.46;79.18
54592;BME280;40488;48.558;18.150;2023-02-20T03:43:45;100329.59;;;2.44;79.04
54592;BME280;40488;48.558;18.150;2023-02-20T03:46:20;100325.28;;;2.42;79.55
54592;BME280;40488;48.558;18.150;2023-02-20T03:48:53;100338.28;;;2.32;79.68
54592;BME280;40488;48.558;18.150;2023-02-20T03:51:25;100343.91;;;2.26;79.74
54592;BME280;40488;48.558;18.150;2023-02-20T03:54:01;100348.69;;;2.20;79.45
54592;BME280;40488;48.558;18.150;2023-02-20T03:56:35;100358.88;;;2.23;80.07
54592;BME280;40488;48.558;18.150;2023-02-20T03:59:09;100354.69;;;2.24;80.44
54592;BME280;40488;48.558;18.150;2023-02-20T04:01:41;100348.56;;;2.17;79.85
54592;BME280;40488;48.558;18.150;2023-02-20T04:04:13;100366.19;;;2.17;80.68
54592;BME280;40488;48.558;18.150;2023-02-20T04:06:48;100360.34;;;2.18;80.80
54592;BME280;40488;48.558;18.150;2023-02-20T04:09:23;100364.53;;;2.18;80.24
54592;BME280;40488;48.558;18.150;2023-02-20T04:11:58;100361.72;;;2.12;81.30
54592;BME280;40488;48.558;18.150;2023-02-20T04:14:30;100366.13;;;2.16;80.78
54592;BME280;40488;48.558;18.150;2023-02-20T04:17:05;100365.13;;;2.12;81.36
54592;BME280;40488;48.558;18.150;2023-02-20T04:19:35;100361.66;;;2.10;80.74
54592;BME280;40488;48.558;18.150;2023-02-20T04:22:10;100361.47;;;2.06;80.96
54592;BME280;40488;48.558;18.150;2023-02-20T04:24:45;100371.47;;;2.04;81.80
54592;BME280;40488;48.558;18.150;2023-02-20T04:27:17;100376.06;;;2.13;81.95
54592;BME280;40488;48.558;18.150;2023-02-20T04:29:52;100375.56;;;2.21;81.90
54592;BME280;40488;48.558;18.150;2023-02-20T04:32:21;100370.53;;;2.21;81.80
54592;BME280;40488;48.558;18.150;2023-02-20T04:34:51;100380.59;;;2.21;82.64
54592;BME280;40488;48.558;18.150;2023-02-20T04:37:20;100385.78;;;2.24;82.53
54592;BME280;40488;48.558;18.150;2023-02-20T04:39:52;100365.25;;;2.15;82.38
54592;BME280;40488;48.558;18.150;2023-02-20T04:42:23;100376.91;;;2.13;82.18
54592;BME280;40488;48.558;18.150;2023-02-20T04:44:52;100376.31;;;2.19;81.80
54592;BME280;40488;48.558;18.150;2023-02-20T04:47:21;100378.75;;;2.17;81.83
54592;BME280;40488;48.558;18.150;2023-02-20T04:49:50;100377.66;;;2.11;82.38
54592;BME280;40488;48.558;18.150;2023-02-20T04:52:22;100372.31;;;2.04;81.91
54592;BME280;40488;48.558;18.150;2023-02-20T04:54:53;100365.31;;;1.97;81.99
54592;BME280;40488;48.558;18.150;2023-02-20T04:57:23;100365.91;;;1.92;82.66
54592;BME280;40488;48.558;18.150;2023-02-20T04:59:52;100365.78;;;1.89;82.19
54592;BME280;40488;48.558;18.150;2023-02-20T05:02:21;100378.06;;;1.83;82.72
54592;BME280;40488;48.558;18.150;2023-02-20T05:04:50;100371.44;;;1.85;82.45
54592;BME280;40488;48.558;18.150;2023-02-20T05:07:19;100357.16;;;1.84;83.26
54592;BME280;40488;48.558;18.150;2023-02-20T05:09:47;100372.41;;;1.87;82.64
54592;BME280;40488;48.558;18.150;2023-02-20T05:12:16;100372.41;;;1.87;83.40
54592;BME280;40488;48.558;18.150;2023-02-20T05:14:46;100373.22;;;1.87;83.60
54592;BME280;40488;48.558;18.150;2023-02-20T05:17:15;100372.59;;;1.91;83.66
54592;BME280;40488;48.558;18.150;2023-02-20T05:19:44;100374.38;;;1.94;83.96
54592;BME280;40488;48.558;18.150;2023-02-20T05:22:13;100372.22;;;2.01;84.11
54592;BME280;40488;48.558;18.150;2023-02-20T05:24:49;100368.00;;;2.02;83.08
54592;BME280;40488;48.558;18.150;2023-02-20T05:27:20;100372.06;;;1.98;83.42
54592;BME280;40488;48.558;18.150;2023-02-20T05:29:53;100367.91;;;1.99;83.82
54592;BME280;40488;48.558;18.150;2023-02-20T05:32:23;100368.00;;;2.02;84.20
54592;BME280;40488;48.558;18.150;2023-02-20T05:34:54;100362.97;;;2.02;84.10
54592;BME280;40488;48.558;18.150;2023-02-20T05:37:24;100363.84;;;2.02;83.89
54592;BME280;40488;48.558;18.150;2023-02-20T05:39:53;100354.69;;;2.04;84.24
54592;BME280;40488;48.558;18.150;2023-02-20T05:42:22;100358.97;;;2.06;84.81
54592;BME280;40488;48.558;18.150;2023-02-20T05:44:53;100363.25;;;2.08;84.47
54592;BME280;40488;48.558;18.150;2023-02-20T05:47:22;100364.34;;;2.13;84.70
54592;BME280;40488;48.558;18.150;2023-02-20T05:49:50;100367.25;;;2.22;83.99
54592;BME280;40488;48.558;18.150;2023-02-20T05:52:19;100379.44;;;2.32;84.24
54592;BME280;40488;48.558;18.150;2023-02-20T05:54:48;100386.72;;;2.45;84.67
54592;BME280;40488;48.558;18.150;2023-02-20T05:57:17;100392.81;;;2.50;84.68
54592;BME280;40488;48.558;18.150;2023-02-20T05:59:46;100392.13;;;2.54;84.35
54592;BME280;40488;48.558;18.150;2023-02-20T06:02:16;100392.41;;;2.60;84.47
54592;BME280;40488;48.558;18.150;2023-02-20T06:04:45;100393.69;;;2.71;84.30
54592;BME280;40488;48.558;18.150;2023-02-20T06:07:14;100388.00;;;2.76;84.17
54592;BME280;40488;48.558;18.150;2023-02-20T06:09:43;100389.56;;;2.73;83.72
54592;BME280;40488;48.558;18.150;2023-02-20T06:12:12;100393.28;;;2.82;83.70
54592;BME280;40488;48.558;18.150;2023-02-20T06:14:41;100399.44;;;2.88;83.69
54592;BME280;40488;48.558;18.150;2023-02-20T06:17:10;100387.84;;;2.92;82.80
54592;BME280;40488;48.558;18.150;2023-02-20T06:19:40;100395.63;;;2.98;82.87
54592;BME280;40488;48.558;18.150;2023-02-20T06:22:09;100402.41;;;2.99;82.87
54592;BME280;40488;48.558;18.150;2023-02-20T06:24:38;100406.84;;;3.04;83.05
54592;BME280;40488;48.558;18.150;2023-02-20T06:27:07;100404.50;;;3.09;82.91
54592;BME280;40488;48.558;18.150;2023-02-20T06:29:35;100397.59;;;3.05;82.49
54592;BME280;40488;48.558;18.150;2023-02-20T06:32:04;100396.81;;;3.06;82.13
54592;BME280;40488;48.558;18.150;2023-02-20T06:34:33;100410.53;;;3.12;81.97
54592;BME280;40488;48.558;18.150;2023-02-20T06:37:04;100412.25;;;3.13;82.46
54592;BME280;40488;48.558;18.150;2023-02-20T06:39:32;100403.13;;;3.17;81.74
54592;BME280;40488;48.558;18.150;2023-02-20T06:42:01;100414.81;;;3.15;82.01
54592;BME280;40488;48.558;18.150;2023-02-20T06:44:30;100428.25;;;3.14;82.32
54592;BME280;40488;48.558;18.150;2023-02-20T06:47:00;100423.31;;;3.17;82.16
54592;BME280;40488;48.558;18.150;2023-02-20T06:49:29;100426.88;;;3.22;81.36
54592;BME280;40488;48.558;18.150;2023-02-20T06:51:58;100424.44;;;3.23;81.71
54592;BME280;40488;48.558;18.150;2023-02-20T06:54:31;100425.06;;;3.18;81.53
54592;BME280;40488;48.558;18.150;2023-02-20T06:57:01;100419.63;;;3.09;81.23
54592;BME280;40488;48.558;18.150;2023-02-20T06:59:30;100413.38;;;2.99;82.34
54592;BME280;40488;48.558;18.150;2023-02-20T07:01:59;100415.56;;;2.92;81.50
54592;BME280;40488;48.558;18.150;2023-02-20T07:04:28;100407.09;;;2.90;82.12
54592;BME280;40488;48.558;18.150;2023-02-20T07:06:57;100403.63;;;2.88;82.54
54592;BME280;40488;48.558;18.150;2023-02-20T07:09:26;100405.34;;;2.89;82.92
54592;BME280;40488;48.558;18.150;2023-02-20T07:11:56;100400.16;;;2.86;83.06
54592;BME280;40488;48.558;18.150;2023-02-20T07:14:25;100419.38;;;3.03;82.90
54592;BME280;40488;48.558;18.150;2023-02-20T07:16:54;100421.25;;;3.07;83.17
54592;BME280;40488;48.558;18.150;2023-02-20T07:19:23;100421.25;;;3.07;83.25
54592;BME280;40488;48.558;18.150;2023-02-20T07:21:51;100416.31;;;3.10;82.63
54592;BME280;40488;48.558;18.150;2023-02-20T07:24:20;100408.50;;;3.04;83.27
54592;BME280;40488;48.558;18.150;2023-02-20T07:26:49;100416.19;;;3.07;83.22
54592;BME280;40488;48.558;18.150;2023-02-20T07:29:19;100418.16;;;3.14;83.23
54592;BME280;40488;48.558;18.150;2023-02-20T07:31:48;100414.03;;;3.16;82.94
54592;BME280;40488;48.558;18.150;2023-02-20T07:34:17;100412.94;;;3.09;83.62
54592;BME280;40488;48.558;18.150;2023-02-20T07:36:46;100401.63;;;3.00;83.12
54592;BME280;40488;48.558;18.150;2023-02-20T07:39:15;100408.88;;;2.92;83.10
54592;BME280;40488;48.558;18.150;2023-02-20T07:41:43;100414.78;;;2.93;83.79
54592;BME280;40488;48.558;18.150;2023-02-20T07:44:25;100405.84;;;3.01;83.58
54592;BME280;40488;48.558;18.150;2023-02-20T07:46:54;100413.59;;;3.05;83.91
54592;BME280;40488;48.558;18.150;2023-02-20T07:49:22;100419.50;;;3.06;84.04
54592;BME280;40488;48.558;18.150;2023-02-20T07:51:52;100418.81;;;3.10;84.52
54592;BME280;40488;48.558;18.150;2023-02-20T07:54:21;100427.34;;;3.12;84.42
54592;BME280;40488;48.558;18.150;2023-02-20T07:56:50;100412.44;;;3.18;84.80
54592;BME280;40488;48.558;18.150;2023-02-20T07:59:18;100427.69;;;3.21;84.99
54592;BME280;40488;48.558;18.150;2023-02-20T08:01:49;100430.22;;;3.21;85.19
54592;BME280;40488;48.558;18.150;2023-02-20T08:04:18;100417.72;;;3.24;85.42
54592;BME280;40488;48.558;18.150;2023-02-20T08:06:46;100422.66;;;3.21;84.88
54592;BME280;40488;48.558;18.150;2023-02-20T08:09:15;100409.78;;;3.15;84.50
54592;BME280;40488;48.558;18.150;2023-02-20T08:11:44;100409.25;;;3.01;85.25
54592;BME280;40488;48.558;18.150;2023-02-20T08:14:14;100412.31;;;2.94;85.16
54592;BME280;40488;48.558;18.150;2023-02-20T08:16:43;100412.13;;;2.90;84.88
54592;BME280;40488;48.558;18.150;2023-02-20T08:19:13;100405.47;;;2.92;85.58
54592;BME280;40488;48.558;18.150;2023-02-20T08:21:42;100416.94;;;3.04;85.42
54592;BME280;40488;48.558;18.150;2023-02-20T08:24:10;100414.31;;;3.03;86.08
54592;BME280;40488;48.558;18.150;2023-02-20T08:26:42;100412.25;;;2.93;86.02
54592;BME280;40488;48.558;18.150;2023-02-20T08:29:12;100408.78;;;2.91;86.55
54592;BME280;40488;48.558;18.150;2023-02-20T08:31:41;100394.16;;;2.82;85.85
54592;BME280;40488;48.558;18.150;2023-02-20T08:34:10;100387.28;;;2.78;86.66
54592;BME280;40488;48.558;18.150;2023-02-20T08:36:40;100398.88;;;2.75;86.42
54592;BME280;40488;48.558;18.150;2023-02-20T08:39:09;100392.03;;;2.72;86.62
54592;BME280;40488;48.558;18.150;2023-02-20T08:41:41;100382.25;;;2.78;87.16
54592;BME280;40488;48.558;18.150;2023-02-20T08:44:11;100380.69;;;2.82;87.00
54592;BME280;40488;48.558;18.150;2023-02-20T08:46:45;100390.09;;;2.86;87.22
54592;BME280;40488;48.558;18.150;2023-02-20T08:49:14;100396.88;;;2.87;87.50
54592;BME280;40488;48.558;18.150;2023-02-20T08:51:47;100397.88;;;2.90;87.81
54592;BME280;40488;48.558;18.150;2023-02-20T08:54:17;100413.81;;;2.91;88.22
54592;BME280;40488;48.558;18.150;2023-02-20T08:56:46;100398.69;;;2.91;87.40
54592;BME280;40488;48.558;18.150;2023-02-20T08:59:15;100405.47;;;2.92;88.25
54592;BME280;40488;48.558;18.150;2023-02-20T09:01:44;100396.25;;;2.92;88.41
54592;BME280;40488;48.558;18.150;2023-02-20T09:04:13;100393.94;;;2.97;88.64
54592;BME280;40488;48.558;18.150;2023-02-20T09:06:43;100397.59;;;3.05;87.88
54592;BME280;40488;48.558;18.150;2023-02-20T09:09:13;100395.16;;;3.06;88.47
54592;BME280;40488;48.558;18.150;2023-02-20T09:11:43;100389.75;;;3.18;88.67
54592;BME280;40488;48.558;18.150;2023-02-20T09:14:11;100384.81;;;3.21;88.67
54592;BME280;40488;48.558;18.150;2023-02-20T09:16:40;100366.13;;;3.16;88.56
54592;BME280;40488;48.558;18.150;2023-02-20T09:19:09;100359.59;;;3.21;89.10
54592;BME280;40488;48.558;18.150;2023-02-20T09:21:40;100351.69;;;3.34;88.68
54592;BME280;40488;48.558;18.150;2023-02-20T09:24:14;100344.44;;;3.42;89.12
54592;BME280;40488;48.558;18.150;2023-02-20T09:26:43;100353.91;;;3.47;88.87
54592;BME280;40488;48.558;18.150;2023-02-20T09:29:12;100349.31;;;3.59;89.16
54592;BME280;40488;48.558;18.150;2023-02-20T09:31:40;100343.53;;;3.62;89.50
54592;BME280;40488;48.558;18.150;2023-02-20T09:34:09;100338.47;;;3.62;89.44
54592;BME280;40488;48.558;18.150;2023-02-20T09:36:38;100339.56;;;3.68;88.88
54592;BME280;40488;48.558;18.150;2023-02-20T09:39:07;100334.63;;;3.71;89.12
54592;BME280;40488;48.558;18.150;2023-02-20T09:42:00;100322.09;;;3.74;89.71
54592;BME280;40488;48.558;18.150;2023-02-20T09:44:38;100315.56;;;3.79;89.28
54592;BME280;40488;48.558;18.150;2023-02-20T09:47:25;100314.97;;;3.86;89.31
54592;BME280;40488;48.558;18.150;2023-02-20T09:50:00;100293.25;;;3.90;89.41
54592;BME280;40488;48.558;18.150;2023-02-20T09:52:33;100294.25;;;3.95;89.99
54592;BME280;40488;48.558;18.150;2023-02-20T09:55:10;100299.44;;;3.98;89.55
54592;BME280;40488;48.558;18.150;2023-02-20T09:57:42;100297.16;;;4.05;89.74
54592;BME280;40488;48.558;18.150;2023-02-20T10:00:21;100299.91;;;4.12;89.63
54592;BME280;40488;48.558;18.150;2023-02-20T10:02:56;100304.25;;;4.16;89.71
54592;BME280;40488;48.558;18.150;2023-02-20T10:05:31;100292.44;;;4.15;89.59
54592;BME280;40488;48.558;18.150;2023-02-20T10:08:00;100292.44;;;4.15;89.70
54592;BME280;40488;48.558;18.150;2023-02-20T10:10:32;100285.66;;;4.14;89.75
54592;BME280;40488;48.558;18.150;2023-02-20T10:13:26;100285.75;;;4.17;89.84
54592;BME280;40488;48.558;18.150;2023-02-20T10:16:03;100284.25;;;4.22;89.32
54592;BME280;40488;48.558;18.150;2023-02-20T10:18:41;100286.94;;;4.26;89.93
54592;BME280;40488;48.558;18.150;2023-02-20T10:21:23;100283.66;;;4.29;89.37
54592;BME280;40488;48.558;18.150;2023-02-20T10:24:00;100273.56;;;4.29;89.37
54592;BME280;40488;48.558;18.150;2023-02-20T10:26:38;100272.84;;;4.33;89.48
54592;BME280;40488;48.558;18.150;2023-02-20T10:29:15;100273.06;;;4.39;89.73
54592;BME280;40488;48.558;18.150;2023-02-20T10:31:50;100266.53;;;4.45;89.39
54592;BME280;40488;48.558;18.150;2023-02-20T10:34:23;100264.94;;;4.49;89.76
54592;BME280;40488;48.558;18.150;2023-02-20T10:37:02;100274.44;;;4.56;89.31
54592;BME280;40488;48.558;18.150;2023-02-20T10:39:35;100262.88;;;4.62;89.62
54592;BME280;40488;48.558;18.150;2023-02-20T10:42:09;100257.16;;;4.68;89.43
54592;BME280;40488;48.558;18.150;2023-02-20T10:44:46;100262.41;;;4.74;89.73
54592;BME280;40488;48.558;18.150;2023-02-20T10:47:22;100249.91;;;4.79;89.68
54592;BME280;40488;48.558;18.150;2023-02-20T10:49:58;100247.63;;;4.86;90.16
54592;BME280;40488;48.558;18.150;2023-02-20T10:52:36;100234.16;;;4.87;89.73
54592;BME280;40488;48.558;18.150;2023-02-20T10:55:13;100219.97;;;4.92;89.81
54592;BME280;40488;48.558;18.150;2023-02-20T10:57:46;100228.63;;;4.99;89.91
54592;BME280;40488;48.558;18.150;2023-02-20T11:00:21;100216.03;;;5.00;90.14
54592;BME280;40488;48.558;18.150;2023-02-20T11:02:56;100211.22;;;5.09;90.28
54592;BME280;40488;48.558;18.150;2023-02-20T11:05:30;100210.47;;;5.12;90.13
54592;BME280;40488;48.558;18.150;2023-02-20T11:08:00;100195.34;;;5.13;90.19
54592;BME280;40488;48.558;18.150;2023-02-20T11:10:29;100194.66;;;5.19;89.75
54592;BME280;40488;48.558;18.150;2023-02-20T11:12:59;100184.66;;;5.23;89.80
54592;BME280;40488;48.558;18.150;2023-02-20T11:15:30;100186.53;;;5.30;90.17
54592;BME280;40488;48.558;18.150;2023-02-20T11:18:00;100165.59;;;5.34;90.27
54592;BME280;40488;48.558;18.150;2023-02-20T11:20:41;100161.50;;;5.39;90.32
54592;BME280;40488;48.558;18.150;2023-02-20T11:28:58;100132.56;;;5.61;89.91
54592;BME280;40488;48.558;18.150;2023-02-20T11:31:30;100132.13;;;5.76;90.19
54592;BME280;40488;48.558;18.150;2023-02-20T11:34:01;100128.91;;;5.83;90.22
54592;BME280;40488;48.558;18.150;2023-02-20T11:36:36;100125.66;;;5.87;90.39
54592;BME280;40488;48.558;18.150;2023-02-20T11:39:18;100118.94;;;5.89;90.27
54592;BME280;40488;48.558;18.150;2023-02-20T11:41:50;100130.06;;;5.94;89.81
54592;BME280;40488;48.558;18.150;2023-02-20T11:44:33;100123.47;;;6.00;90.30
54592;BME280;40488;48.558;18.150;2023-02-20T11:47:17;100127.81;;;6.06;90.00
54592;BME280;40488;48.558;18.150;2023-02-20T11:49:47;100108.41;;;6.06;90.07
54592;BME280;40488;48.558;18.150;2023-02-20T11:52:18;100116.41;;;6.23;90.27
54592;BME280;40488;48.558;18.150;2023-02-20T11:55:08;100107.34;;;6.33;90.06
54592;BME280;40488;48.558;18.150;2023-02-20T11:57:42;100103.28;;;6.39;89.77
54592;BME280;40488;48.558;18.150;2023-02-20T12:00:14;100105.19;;;6.49;89.55
54592;BME280;40488;48.558;18.150;2023-02-20T12:02:53;100100.03;;;6.46;89.11
54592;BME280;40488;48.558;18.150;2023-02-20T12:05:36;100114.84;;;6.65;89.45
54592;BME280;40488;48.558;18.150;2023-02-20T12:08:26;100099.69;;;6.68;88.90
54592;BME280;40488;48.558;18.150;2023-02-20T12:10:59;100078.53;;;6.68;89.21
54592;BME280;40488;48.558;18.150;2023-02-20T12:13:30;100078.78;;;6.79;89.01
54592;BME280;40488;48.558;18.150;2023-02-20T12:16:12;100063.84;;;6.92;88.83
54592;BME280;40488;48.558;18.150;2023-02-20T12:18:57;100068.53;;;7.16;88.29
54592;BME280;40488;48.558;18.150;2023-02-20T12:21:38;100067.25;;;7.37;88.45
54592;BME280;40488;48.558;18.150;2023-02-20T12:27:21;100060.28;;;7.75;87.78
54592;BME280;40488;48.558;18.150;2023-02-20T12:29:58;100060.72;;;8.02;87.00
54592;BME280;40488;48.558;18.150;2023-02-20T12:32:38;100050.38;;;7.90;85.69
54592;BME280;40488;48.558;18.150;2023-02-20T12:35:28;100057.06;;;7.85;85.91
54592;BME280;40488;48.558;18.150;2023-02-20T12:38:16;100066.28;;;7.80;85.41
54592;BME280;40488;48.558;18.150;2023-02-20T12:40:50;100063.88;;;7.86;85.92
54592;BME280;40488;48.558;18.150;2023-02-20T12:43:32;100050.38;;;7.90;84.46
54592;BME280;40488;48.558;18.150;2023-02-20T12:46:07;100047.81;;;7.90;84.91
54592;BME280;40488;48.558;18.150;2023-02-20T12:48:45;100030.09;;;7.93;84.92
54592;BME280;40488;48.558;18.150;2023-02-20T12:51:26;100014.75;;;7.87;84.09
54592;BME280;40488;48.558;18.150;2023-02-20T12:54:13;100002.75;;;7.77;84.51
54592;BME280;40488;48.558;18.150;2023-02-20T12:56:57;99989.13;;;7.75;84.44
54592;BME280;40488;48.558;18.150;2023-02-20T12:59:35;99998.72;;;7.93;84.76
54592;BME280;40488;48.558;18.150;2023-02-20T13:02:17;99994.75;;;8.11;84.18
54592;BME280;40488;48.558;18.150;2023-02-20T13:05:10;99996.59;;;8.22;83.84
54592;BME280;40488;48.558;18.150;2023-02-20T13:07:44;99990.78;;;8.27;83.61
54592;BME280;40488;48.558;18.150;2023-02-20T13:10:17;99984.75;;;8.24;83.69
54592;BME280;40488;48.558;18.150;2023-02-20T13:12:50;99968.63;;;8.22;83.78
54592;BME280;40488;48.558;18.150;2023-02-20T13:15:28;99954.09;;;8.11;84.18
54592;BME280;40488;48.558;18.150;2023-02-20T13:18:08;99966.22;;;8.28;84.30
54592;BME280;40488;48.558;18.150;2023-02-20T13:20:45;99964.63;;;8.36;83.62
54592;BME280;40488;48.558;18.150;2023-02-20T13:23:28;99965.47;;;8.35;85.00
54592;BME280;40488;48.558;18.150;2023-02-20T13:25:58;99956.88;;;8.27;84.69
54592;BME280;40488;48.558;18.150;2023-02-20T13:28:38;99961.16;;;8.28;84.02
54592;BME280;40488;48.558;18.150;2023-02-20T13:31:14;99945.13;;;8.36;85.06
54592;BME280;40488;48.558;18.150;2023-02-20T13:33:46;99937.59;;;8.44;84.60
54592;BME280;40488;48.558;18.150;2023-02-20T13:36:37;99940.97;;;8.43;85.69
54592;BME280;40488;48.558;18.150;2023-02-20T13:45:01;99906.38;;;8.57;84.62